createdAt,value
2019-06-08T00:00:33.677Z,84.77
2019-06-08T00:01:33.749Z,84.77
2019-06-08T00:02:33.793Z,84.67
2019-06-08T00:03:33.954Z,85.05
2019-06-08T00:04:33.963Z,85.34
2019-06-08T00:05:33.971Z,84.95
2019-06-08T00:06:34.030Z,85.58
2019-06-08T00:07:34.089Z,85.58
2019-06-08T00:08:34.147Z,86.07
2019-06-08T00:09:34.205Z,85.58
2019-06-08T00:10:34.264Z,85.53
2019-06-08T00:11:34.324Z,85.44
2019-06-08T00:12:34.382Z,84.95
2019-06-08T00:13:34.552Z,84.91
2019-06-08T00:14:34.501Z,85.34
2019-06-08T00:15:34.559Z,85.39
2019-06-08T00:16:34.617Z,85.39
2019-06-08T00:17:38.883Z,85.44
2019-06-08T00:18:34.735Z,85.88
2019-06-08T00:19:34.794Z,85.97
2019-06-08T00:20:34.856Z,85.58
2019-06-08T00:21:34.914Z,86.54
2019-06-08T00:22:34.971Z,86.35
2019-06-08T00:23:35.030Z,86.45
2019-06-08T00:24:35.088Z,86.64
2019-06-08T00:25:35.146Z,86.64
2019-06-08T00:26:35.206Z,85.97
2019-06-08T00:27:35.274Z,85.68
2019-06-08T00:28:35.325Z,85.58
2019-06-08T00:29:35.383Z,85.68
2019-06-08T00:30:35.444Z,85.39
2019-06-08T00:31:35.499Z,85.11
2019-06-08T00:32:35.560Z,85.30
2019-06-08T00:34:18.469Z,85.39
2019-06-08T00:35:18.652Z,85.01
2019-06-08T00:36:18.744Z,85.39
2019-06-08T00:37:18.754Z,85.49
2019-06-08T00:38:18.839Z,85.30
2019-06-08T00:39:18.855Z,85.58
2019-06-08T00:40:18.910Z,86.07
2019-06-08T00:41:20.212Z,85.97
2019-06-08T00:42:19.266Z,85.97
2019-06-08T00:43:19.132Z,86.45
2019-06-08T00:44:19.266Z,85.68
2019-06-08T00:45:20.010Z,85.88
2019-06-08T00:46:19.393Z,85.97
2019-06-08T00:47:18.825Z,85.58
2019-06-08T00:48:19.544Z,86.07
2019-06-08T00:49:18.937Z,85.78
2019-06-08T00:50:19.001Z,85.49
2019-06-08T00:51:19.054Z,85.39
2019-06-08T00:52:19.115Z,84.91
2019-06-08T00:53:19.742Z,84.72
2019-06-08T00:54:19.377Z,84.63
2019-06-08T00:55:19.515Z,85.11
2019-06-08T00:56:19.500Z,84.44
2019-06-08T00:57:19.748Z,84.72
2019-06-08T00:58:20.427Z,84.72
2019-06-08T00:59:19.920Z,84.63
2019-06-08T01:00:20.433Z,85.30
2019-06-08T01:01:20.747Z,84.91
2019-06-08T01:02:20.403Z,85.30
2019-06-08T01:03:19.758Z,85.39
2019-06-08T01:04:20.602Z,86.16
2019-06-08T01:05:20.021Z,85.78
2019-06-08T01:06:20.968Z,85.97
2019-06-08T01:07:20.009Z,86.54
2019-06-08T01:08:20.787Z,86.74
2019-06-08T01:09:20.270Z,86.54
2019-06-08T01:10:21.310Z,86.64
2019-06-08T01:11:20.942Z,86.45
2019-06-08T01:12:20.563Z,86.25
2019-06-08T01:13:20.795Z,86.21
2019-06-08T01:14:20.867Z,85.83
2019-06-08T01:15:26.928Z,85.45
2019-06-08T01:16:20.939Z,85.06
2019-06-08T01:17:21.090Z,85.06
2019-06-08T01:18:22.475Z,85.54
2019-06-08T01:19:21.104Z,84.58
2019-06-08T01:20:21.754Z,84.49
2019-06-08T01:21:21.314Z,84.30
2019-06-08T01:22:21.606Z,84.11
2019-06-08T01:23:21.588Z,84.01
2019-06-08T01:24:21.610Z,83.72
2019-06-08T01:25:21.926Z,84.20
2019-06-08T01:26:22.238Z,83.82
2019-06-08T01:27:22.038Z,84.58
2019-06-08T01:28:22.144Z,84.97
2019-06-08T01:29:22.272Z,85.16
2019-06-08T01:30:22.206Z,85.74
2019-06-08T01:31:22.441Z,86.21
2019-06-08T01:32:22.285Z,86.60
2019-06-08T01:33:22.527Z,86.88
2019-06-08T01:34:22.810Z,87.27
2019-06-08T01:35:22.852Z,87.37
2019-06-08T01:36:22.767Z,86.50
2019-06-08T01:37:22.977Z,86.69
2019-06-08T01:38:22.724Z,86.98
2019-06-08T01:39:22.973Z,86.31
2019-06-08T01:40:23.157Z,86.12
2019-06-08T01:41:23.188Z,85.54
2019-06-08T01:42:23.339Z,85.45
2019-06-08T01:43:23.605Z,85.45
2019-06-08T01:44:22.166Z,83.82
2019-06-08T01:45:22.219Z,83.15
2019-06-08T01:46:22.278Z,83.82
2019-06-08T01:47:22.336Z,83.63
2019-06-08T01:48:22.446Z,83.05
2019-06-08T01:49:22.454Z,83.25
2019-06-08T01:50:22.512Z,83.05
2019-06-08T01:51:22.585Z,83.63
2019-06-08T01:52:22.629Z,83.82
2019-06-08T01:53:22.818Z,83.72
2019-06-08T01:54:22.867Z,83.63
2019-06-08T01:55:23.054Z,83.53
2019-06-08T01:56:22.956Z,83.44
2019-06-08T01:57:23.162Z,82.96
2019-06-08T01:58:23.338Z,82.76
2019-06-08T01:59:23.355Z,82.29
2019-06-08T02:00:36.955Z,82.19
2019-06-08T02:01:23.462Z,81.90
2019-06-08T02:02:23.820Z,82.29
2019-06-08T02:03:23.826Z,82.00
2019-06-08T02:04:23.919Z,82.06
2019-06-08T02:05:24.039Z,82.43
2019-06-08T02:06:24.172Z,82.34
2019-06-08T02:07:24.237Z,82.34
2019-06-08T02:08:24.401Z,82.92
2019-06-08T02:09:24.531Z,82.82
2019-06-08T02:10:24.428Z,83.11
2019-06-08T02:11:24.525Z,83.20
2019-06-08T02:12:24.803Z,82.92
2019-06-08T02:13:24.952Z,83.20
2019-06-08T02:14:25.036Z,83.01
2019-06-08T02:15:25.220Z,83.87
2019-06-08T02:16:25.580Z,83.59
2019-06-08T02:17:25.137Z,83.59
2019-06-08T02:18:36.736Z,84.35
2019-06-08T02:19:24.206Z,84.64
2019-06-08T02:20:24.265Z,84.55
2019-06-08T02:21:24.324Z,85.02
2019-06-08T02:22:24.382Z,84.92
2019-06-08T02:23:24.440Z,84.64
2019-06-08T02:24:24.498Z,84.45
2019-06-08T02:25:24.558Z,84.64
2019-06-08T02:26:27.054Z,85.02
2019-06-08T02:27:24.673Z,85.21
2019-06-08T02:28:24.731Z,84.92
2019-06-08T02:29:24.791Z,85.60
2019-06-08T02:30:24.850Z,85.50
2019-06-08T02:31:24.910Z,85.31
2019-06-08T02:32:24.965Z,84.92
2019-06-08T02:33:25.025Z,84.83
2019-06-08T02:34:25.156Z,85.21
2019-06-08T02:35:25.139Z,85.31
2019-06-08T02:36:25.201Z,85.31
2019-06-08T02:37:25.261Z,85.21
2019-06-08T02:38:25.321Z,84.74
2019-06-08T02:39:25.394Z,84.35
2019-06-08T02:40:25.443Z,84.35
2019-06-08T02:42:07.928Z,84.83
2019-06-08T02:43:07.986Z,85.21
2019-06-08T02:44:08.044Z,85.21
2019-06-08T02:45:08.104Z,84.88
2019-06-08T02:46:08.161Z,85.50
2019-06-08T02:47:08.236Z,85.36
2019-06-08T02:48:08.277Z,85.60
2019-06-08T02:49:08.338Z,85.75
2019-06-08T02:50:08.394Z,86.32
2019-06-08T02:51:08.465Z,85.17
2019-06-08T02:52:08.512Z,85.60
2019-06-08T02:53:08.568Z,85.75
2019-06-08T02:54:08.627Z,85.46
2019-06-08T02:55:08.685Z,84.50
2019-06-08T02:56:08.742Z,84.92
2019-06-08T02:57:08.804Z,85.08
2019-06-08T02:58:08.857Z,84.50
2019-06-08T02:59:08.917Z,84.69
2019-06-08T03:00:08.975Z,84.31
2019-06-08T03:01:09.034Z,85.27
2019-06-08T03:02:09.094Z,84.59
2019-06-08T03:03:09.150Z,85.46
2019-06-08T03:04:09.209Z,84.88
2019-06-08T03:05:09.266Z,85.17
2019-06-08T03:06:09.323Z,85.36
2019-06-08T03:07:09.381Z,85.55
2019-06-08T03:08:09.445Z,85.65
2019-06-08T03:09:09.499Z,86.41
2019-06-08T03:10:09.554Z,85.46
2019-06-08T03:11:09.619Z,86.51
2019-06-08T03:12:09.671Z,86.22
2019-06-08T03:13:09.731Z,86.41
2019-06-08T03:14:09.797Z,86.41
2019-06-08T03:15:09.844Z,85.65
2019-06-08T03:16:09.903Z,86.13
2019-06-08T03:17:10.334Z,86.32
2019-06-08T03:18:10.025Z,85.84
2019-06-08T03:19:21.624Z,85.84
2019-06-08T03:20:10.169Z,86.32
2019-06-08T03:21:10.201Z,85.46
2019-06-08T03:22:11.137Z,86.32
2019-06-08T03:23:10.313Z,86.41
2019-06-08T03:24:10.367Z,86.22
2019-06-08T03:25:10.421Z,86.22
2019-06-08T03:26:10.479Z,86.94
2019-06-08T03:27:10.539Z,86.85
2019-06-08T03:28:10.595Z,86.61
2019-06-08T03:29:10.654Z,86.94
2019-06-08T03:30:17.174Z,87.14
2019-06-08T03:31:10.769Z,86.76
2019-06-08T03:32:10.863Z,87.14
2019-06-08T03:33:10.921Z,87.43
2019-06-08T03:34:10.944Z,87.62
2019-06-08T03:35:11.033Z,87.52
2019-06-08T03:36:11.150Z,87.43
2019-06-08T03:37:11.116Z,87.62
2019-06-08T03:38:11.177Z,87.52
2019-06-08T03:39:11.242Z,87.14
2019-06-08T03:40:11.289Z,87.33
2019-06-08T03:41:11.346Z,87.81
2019-06-08T03:42:11.403Z,87.71
2019-06-08T03:43:11.478Z,87.33
2019-06-08T03:44:12.036Z,87.33
2019-06-08T03:45:11.586Z,87.52
2019-06-08T03:46:11.634Z,87.71
2019-06-08T03:47:11.691Z,87.71
2019-06-08T03:48:11.757Z,87.81
2019-06-08T03:49:11.809Z,87.71
2019-06-08T03:50:11.873Z,87.14
2019-06-08T03:51:11.924Z,87.81
2019-06-08T03:52:11.993Z,87.71
2019-06-08T03:53:12.041Z,88.29
2019-06-08T03:54:12.095Z,88.38
2019-06-08T03:55:12.154Z,88.76
2019-06-08T03:56:12.209Z,88.67
2019-06-08T03:57:12.269Z,88.48
2019-06-08T03:58:12.326Z,88.57
2019-06-08T03:59:12.386Z,88.67
2019-06-08T04:00:13.687Z,88.38
2019-06-08T04:01:12.501Z,88.67
2019-06-08T04:02:12.561Z,88.67
2019-06-08T04:03:12.653Z,88.48
2019-06-08T04:04:12.673Z,88.57
2019-06-08T04:05:12.735Z,88.00
2019-06-08T04:06:12.789Z,88.00
2019-06-08T04:07:12.845Z,87.90
2019-06-08T04:08:12.905Z,88.00
2019-06-08T04:09:12.961Z,88.48
2019-06-08T04:10:13.019Z,88.38
2019-06-08T04:11:13.077Z,88.48
2019-06-08T04:12:13.159Z,87.90
2019-06-08T04:13:13.195Z,87.90
2019-06-08T04:14:13.250Z,87.62
2019-06-08T04:15:13.309Z,88.57
2019-06-08T04:16:13.366Z,88.57
2019-06-08T04:17:13.425Z,88.19
2019-06-08T04:18:13.481Z,88.09
2019-06-08T04:19:13.553Z,88.38
2019-06-08T04:20:13.597Z,88.76
2019-06-08T04:21:13.657Z,88.48
2019-06-08T04:22:13.711Z,88.57
2019-06-08T04:23:13.769Z,88.86
2019-06-08T04:24:13.829Z,88.38
2019-06-08T04:25:13.886Z,88.29
2019-06-08T04:26:13.942Z,88.19
2019-06-08T04:27:14.004Z,87.81
2019-06-08T04:28:14.061Z,87.71
2019-06-08T04:29:14.119Z,87.62
2019-06-08T04:30:14.192Z,88.00
2019-06-08T04:31:14.231Z,88.09
2019-06-08T04:32:14.290Z,87.90
2019-06-08T04:33:14.348Z,88.38
2019-06-08T04:34:14.405Z,88.57
2019-06-08T04:35:14.464Z,87.81
2019-06-08T04:36:14.520Z,87.81
2019-06-08T04:37:15.955Z,87.81
2019-06-08T04:38:14.649Z,87.33
2019-06-08T04:39:14.694Z,88.00
2019-06-08T04:40:14.751Z,87.81
2019-06-08T04:41:14.813Z,87.52
2019-06-08T04:42:14.867Z,87.23
2019-06-08T04:43:14.924Z,87.33
2019-06-08T04:44:14.982Z,87.62
2019-06-08T04:45:15.041Z,87.81
2019-06-08T04:46:15.098Z,87.81
2019-06-08T04:47:15.160Z,87.33
2019-06-08T04:48:15.214Z,87.90
2019-06-08T04:49:15.277Z,87.62
2019-06-08T04:50:22.578Z,87.62
2019-06-08T04:51:15.387Z,87.33
2019-06-08T04:52:15.443Z,86.85
2019-06-08T04:53:15.500Z,86.85
2019-06-08T04:54:15.559Z,87.52
2019-06-08T04:55:15.616Z,87.62
2019-06-08T04:56:16.350Z,87.62
2019-06-08T04:57:15.731Z,87.14
2019-06-08T04:58:16.350Z,86.76
2019-06-08T04:59:15.850Z,87.33
2019-06-08T05:00:15.905Z,87.43
2019-06-08T05:01:05.434Z,87.04
2019-06-08T05:02:05.487Z,87.23
2019-06-08T05:03:05.581Z,87.71
2019-06-08T05:04:05.613Z,87.52
2019-06-08T05:05:05.660Z,87.52
2019-06-08T05:06:05.718Z,87.81
2019-06-08T05:07:05.774Z,87.52
2019-06-08T05:08:05.844Z,87.33
2019-06-08T05:09:05.890Z,87.81
2019-06-08T05:10:05.952Z,88.09
2019-06-08T05:11:06.007Z,88.29
2019-06-08T05:12:06.066Z,88.38
2019-06-08T05:13:06.125Z,87.71
2019-06-08T05:14:06.180Z,88.57
2019-06-08T05:15:06.238Z,88.29
2019-06-08T05:16:06.295Z,88.48
2019-06-08T05:17:06.353Z,88.57
2019-06-08T05:18:06.411Z,88.57
2019-06-08T05:19:06.467Z,88.76
2019-06-08T05:20:06.527Z,88.57
2019-06-08T05:21:06.588Z,87.90
2019-06-08T05:22:06.644Z,87.43
2019-06-08T05:23:06.699Z,87.52
2019-06-08T05:24:06.759Z,87.90
2019-06-08T05:25:06.815Z,87.81
2019-06-08T05:26:06.873Z,87.43
2019-06-08T05:27:06.931Z,87.33
2019-06-08T05:28:06.987Z,87.81
2019-06-08T05:29:07.047Z,87.43
2019-06-08T05:30:08.726Z,87.33
2019-06-08T05:31:07.162Z,87.43
2019-06-08T05:32:07.219Z,87.27
2019-06-08T05:33:07.279Z,87.66
2019-06-08T05:34:07.335Z,87.33
2019-06-08T05:35:07.392Z,87.43
2019-06-08T05:36:07.450Z,87.56
2019-06-08T05:37:07.508Z,88.43
2019-06-08T05:38:07.566Z,87.56
2019-06-08T05:39:07.622Z,86.90
2019-06-08T05:40:07.681Z,87.18
2019-06-08T05:41:07.738Z,86.18
2019-06-08T05:42:07.798Z,86.32
2019-06-08T05:43:07.854Z,86.32
2019-06-08T05:44:07.912Z,85.65
2019-06-08T05:45:07.970Z,85.75
2019-06-08T05:46:08.028Z,85.17
2019-06-08T05:47:08.085Z,85.27
2019-06-08T05:48:08.144Z,85.84
2019-06-08T05:49:08.202Z,86.51
2019-06-08T05:50:08.259Z,85.75
2019-06-08T05:51:08.317Z,85.94
2019-06-08T05:52:08.375Z,85.94
2019-06-08T05:53:09.029Z,85.36
2019-06-08T05:54:08.491Z,85.36
2019-06-08T05:55:08.552Z,85.17
2019-06-08T05:56:08.607Z,86.22
2019-06-08T05:57:08.666Z,86.13
2019-06-08T05:58:08.725Z,86.36
2019-06-08T05:59:08.782Z,85.69
2019-06-08T06:00:09.442Z,85.75
2019-06-08T06:01:08.899Z,85.65
2019-06-08T06:02:08.959Z,85.65
2019-06-08T06:03:09.016Z,86.32
2019-06-08T06:04:09.073Z,86.32
2019-06-08T06:05:09.133Z,86.22
2019-06-08T06:06:09.194Z,85.94
2019-06-08T06:07:09.253Z,86.22
2019-06-08T06:08:18.410Z,86.70
2019-06-08T06:09:09.368Z,86.99
2019-06-08T06:10:09.470Z,86.04
2019-06-08T06:11:09.483Z,86.22
2019-06-08T06:12:09.541Z,86.32
2019-06-08T06:13:09.601Z,86.70
2019-06-08T06:14:09.662Z,86.41
2019-06-08T06:15:09.715Z,86.51
2019-06-08T06:16:09.781Z,86.70
2019-06-08T06:17:09.832Z,86.51
2019-06-08T06:18:09.891Z,87.08
2019-06-08T06:19:09.948Z,87.33
2019-06-08T06:20:10.009Z,87.71
2019-06-08T06:21:12.023Z,87.43
2019-06-08T06:22:10.126Z,87.43
2019-06-08T06:23:10.183Z,87.62
2019-06-08T06:24:10.242Z,87.43
2019-06-08T06:25:10.299Z,87.71
2019-06-08T06:26:10.358Z,88.00
2019-06-08T06:27:10.416Z,87.62
2019-06-08T06:28:10.475Z,87.90
2019-06-08T06:29:10.532Z,87.81
2019-06-08T06:30:10.592Z,87.66
2019-06-08T06:31:10.653Z,87.52
2019-06-08T06:32:10.708Z,87.76
2019-06-08T06:33:10.765Z,87.56
2019-06-08T06:34:10.840Z,87.37
2019-06-08T06:35:10.881Z,87.43
2019-06-08T06:36:10.941Z,87.56
2019-06-08T06:37:10.999Z,88.23
2019-06-08T06:38:11.059Z,87.85
2019-06-08T06:39:11.117Z,87.95
2019-06-08T06:40:11.175Z,87.18
2019-06-08T06:41:11.233Z,87.76
2019-06-08T06:42:11.292Z,87.66
2019-06-08T06:43:11.354Z,88.19
2019-06-08T06:44:11.407Z,87.43
2019-06-08T06:45:11.466Z,87.47
2019-06-08T06:46:11.526Z,88.33
2019-06-08T06:47:11.583Z,88.38
2019-06-08T06:48:11.641Z,88.76
2019-06-08T06:49:11.701Z,88.13
2019-06-08T06:50:11.761Z,88.57
2019-06-08T06:51:25.219Z,88.57
2019-06-08T06:52:11.875Z,88.48
2019-06-08T06:53:11.935Z,88.23
2019-06-08T06:54:11.993Z,87.76
2019-06-08T06:55:12.053Z,87.85
2019-06-08T06:56:12.109Z,87.66
2019-06-08T06:57:12.166Z,87.66
2019-06-08T06:58:12.226Z,87.76
2019-06-08T06:59:12.282Z,86.90
2019-06-08T07:00:12.345Z,86.99
2019-06-08T07:01:12.405Z,86.70
2019-06-08T07:02:12.459Z,87.18
2019-06-08T07:03:12.518Z,87.18
2019-06-08T07:04:12.577Z,86.90
2019-06-08T07:05:12.635Z,87.08
2019-06-08T07:06:12.692Z,86.99
2019-06-08T07:07:12.750Z,86.80
2019-06-08T07:08:12.810Z,86.70
2019-06-08T07:09:12.871Z,86.80
2019-06-08T07:10:12.929Z,86.46
2019-06-08T07:11:12.986Z,86.94
2019-06-08T07:12:13.047Z,86.55
2019-06-08T07:13:13.109Z,86.27
2019-06-08T07:14:13.162Z,87.23
2019-06-08T07:15:13.235Z,86.65
2019-06-08T07:16:18.274Z,86.27
2019-06-08T07:17:13.340Z,86.36
2019-06-08T07:18:13.401Z,86.84
2019-06-08T07:19:13.457Z,86.99
2019-06-08T07:20:13.516Z,87.13
2019-06-08T07:21:13.576Z,86.74
2019-06-08T07:22:13.635Z,87.70
2019-06-08T07:23:13.695Z,87.41
2019-06-08T07:24:13.756Z,86.84
2019-06-08T07:25:14.279Z,86.36
2019-06-08T07:26:13.872Z,86.36
2019-06-08T07:27:13.931Z,86.36
2019-06-08T07:28:14.001Z,86.74
2019-06-08T07:29:14.048Z,86.36
2019-06-08T07:30:14.126Z,85.69
2019-06-08T07:31:14.166Z,86.55
2019-06-08T07:32:14.227Z,86.94
2019-06-08T07:33:14.287Z,87.70
2019-06-08T07:34:14.346Z,87.85
2019-06-08T07:35:14.404Z,88.04
2019-06-08T07:36:14.462Z,87.66
2019-06-08T07:37:14.522Z,88.52
2019-06-08T07:38:14.580Z,88.52
2019-06-08T07:39:14.640Z,88.33
2019-06-08T07:40:14.698Z,89.29
2019-06-08T07:41:14.757Z,88.52
2019-06-08T07:42:14.891Z,88.71
2019-06-08T07:43:14.881Z,88.71
2019-06-08T07:44:14.935Z,88.52
2019-06-08T07:45:14.993Z,87.85
2019-06-08T07:46:15.052Z,87.95
2019-06-08T07:47:15.459Z,88.52
2019-06-08T07:48:15.169Z,88.81
2019-06-08T07:49:15.228Z,89.00
2019-06-08T07:50:15.871Z,89.48
2019-06-08T07:51:15.910Z,89.19
2019-06-08T07:52:15.404Z,89.86
2019-06-08T07:53:15.463Z,88.81
2019-06-08T07:54:15.521Z,89.09
2019-06-08T07:55:15.579Z,89.09
2019-06-08T07:56:15.638Z,88.81
2019-06-08T07:57:16.062Z,89.00
2019-06-08T07:58:15.756Z,88.90
2019-06-08T07:59:15.813Z,88.47
2019-06-08T08:00:15.873Z,88.81
2019-06-08T08:01:16.588Z,88.52
2019-06-08T08:02:15.989Z,89.29
2019-06-08T08:03:16.053Z,89.29
2019-06-08T08:04:16.118Z,89.00
2019-06-08T08:05:16.166Z,88.85
2019-06-08T08:06:16.222Z,88.62
2019-06-08T08:07:16.614Z,88.43
2019-06-08T08:08:16.343Z,88.76
2019-06-08T08:09:16.401Z,88.66
2019-06-08T08:10:16.496Z,88.56
2019-06-08T08:11:16.519Z,87.99
2019-06-08T08:12:16.574Z,87.90
2019-06-08T08:13:16.634Z,87.51
2019-06-08T08:14:16.693Z,87.23
2019-06-08T08:15:16.753Z,88.09
2019-06-08T08:16:16.810Z,88.18
2019-06-08T08:17:16.869Z,88.56
2019-06-08T08:18:16.928Z,87.99
2019-06-08T08:19:17.003Z,87.99
2019-06-08T08:20:17.066Z,88.18
2019-06-08T08:21:24.973Z,87.41
2019-06-08T08:22:24.978Z,87.51
2019-06-08T08:23:17.422Z,87.61
2019-06-08T08:24:17.450Z,87.80
2019-06-08T08:25:18.220Z,86.84
2019-06-08T08:26:17.401Z,87.51
2019-06-08T08:27:18.036Z,88.09
2019-06-08T08:28:17.763Z,87.65
2019-06-08T08:29:17.763Z,87.17
2019-06-08T08:30:20.362Z,86.31
2019-06-08T08:31:18.530Z,86.41
2019-06-08T08:32:18.784Z,85.64
2019-06-08T08:33:18.356Z,85.58
2019-06-08T08:34:18.264Z,85.06
2019-06-08T08:35:18.565Z,85.35
2019-06-08T08:36:20.995Z,85.93
2019-06-08T08:37:18.053Z,85.83
2019-06-08T08:38:18.115Z,86.60
2019-06-08T08:39:18.190Z,86.79
2019-06-08T08:40:18.232Z,85.45
2019-06-08T08:41:18.418Z,84.68
2019-06-08T08:42:18.353Z,84.34
2019-06-08T08:43:18.413Z,84.63
2019-06-08T08:44:18.799Z,84.25
2019-06-08T08:45:18.532Z,84.82
2019-06-08T08:46:18.592Z,84.05
2019-06-08T08:47:18.849Z,84.15
2019-06-08T08:48:25.285Z,83.48
2019-06-08T08:49:18.770Z,83.95
2019-06-08T08:50:18.831Z,83.38
2019-06-08T08:51:20.619Z,83.48
2019-06-08T08:52:33.481Z,83.58
2019-06-08T08:53:19.010Z,84.05
2019-06-08T08:54:19.070Z,84.20
2019-06-08T08:55:20.610Z,84.44
2019-06-08T08:56:19.189Z,84.53
2019-06-08T08:57:19.250Z,84.63
2019-06-08T08:58:19.312Z,84.30
2019-06-08T08:59:19.369Z,84.58
2019-06-08T09:00:19.429Z,84.97
2019-06-08T09:01:20.535Z,84.34
2019-06-08T09:02:21.401Z,83.86
2019-06-08T09:03:28.678Z,83.29
2019-06-08T09:04:19.667Z,82.42
2019-06-08T09:05:19.730Z,82.52
2019-06-08T09:06:19.789Z,82.18
2019-06-08T09:07:19.857Z,82.14
2019-06-08T09:08:23.032Z,81.46
2019-06-08T09:09:21.658Z,81.70
2019-06-08T09:10:20.028Z,81.41
2019-06-08T09:11:20.087Z,80.55
2019-06-08T09:12:20.151Z,80.55
2019-06-08T09:13:20.206Z,81.18
2019-06-08T09:15:03.948Z,82.23
2019-06-08T09:16:04.211Z,82.42
2019-06-08T09:17:03.555Z,83.00
2019-06-08T09:18:03.859Z,82.14
2019-06-08T09:19:04.556Z,82.08
2019-06-08T09:20:47.731Z,80.55
2019-06-08T09:21:48.042Z,80.55
2019-06-08T09:22:55.839Z,80.51
2019-06-08T09:23:45.630Z,81.27
2019-06-08T09:24:48.399Z,81.41
2019-06-08T09:25:48.102Z,80.93
2019-06-08T09:26:47.806Z,80.55
2019-06-08T09:27:48.217Z,80.35
2019-06-08T09:28:45.926Z,81.02
2019-06-08T09:29:48.027Z,80.35
2019-06-08T09:30:48.235Z,80.45
2019-06-08T09:31:48.867Z,81.12
2019-06-08T09:32:47.826Z,80.40
2019-06-08T09:33:53.214Z,79.63
2019-06-08T09:34:48.264Z,78.47
2019-06-08T09:35:47.881Z,78.53
2019-06-08T09:36:47.887Z,78.92
2019-06-08T09:37:48.420Z,78.63
2019-06-08T09:38:47.925Z,78.92
2019-06-08T09:39:48.242Z,79.59
2019-06-08T09:40:48.724Z,80.16
2019-06-08T09:41:47.949Z,79.39
2019-06-08T09:42:46.767Z,79.88
2019-06-08T09:43:48.752Z,80.35
2019-06-08T09:44:48.303Z,80.16
2019-06-08T09:45:48.294Z,79.88
2019-06-08T09:46:48.090Z,80.07
2019-06-08T09:47:47.849Z,79.30
2019-06-08T09:48:48.685Z,78.72
2019-06-08T09:49:48.033Z,77.76
2019-06-08T09:50:48.637Z,77.61
2019-06-08T09:51:48.634Z,76.94
2019-06-08T09:52:47.995Z,76.07
2019-06-08T09:53:47.705Z,75.79
2019-06-08T09:54:48.166Z,75.89
2019-06-08T09:55:48.158Z,76.07
2019-06-08T09:56:47.922Z,76.94
2019-06-08T09:57:48.495Z,76.94
2019-06-08T09:58:51.164Z,76.37
2019-06-08T09:59:48.299Z,76.07
2019-06-08T10:00:48.624Z,75.40
2019-06-08T10:01:47.909Z,76.37
2019-06-08T10:02:48.027Z,77.04
2019-06-08T10:03:48.268Z,77.04
2019-06-08T10:04:48.496Z,77.71
2019-06-08T10:05:48.520Z,77.71
2019-06-08T10:06:48.207Z,78.09
2019-06-08T10:07:48.735Z,76.94
2019-06-08T10:08:48.327Z,76.94
2019-06-08T10:09:50.132Z,76.46
2019-06-08T10:10:48.557Z,76.84
2019-06-08T10:11:48.519Z,76.65
2019-06-08T10:12:48.656Z,75.79
2019-06-08T10:13:48.633Z,75.63
2019-06-08T10:14:49.217Z,76.12
2019-06-08T10:15:51.572Z,75.35
2019-06-08T10:16:48.822Z,74.33
2019-06-08T10:17:48.886Z,72.79
2019-06-08T10:18:51.511Z,72.69
2019-06-08T10:19:52.761Z,72.79
2019-06-08T10:20:49.064Z,72.99
2019-06-08T10:21:49.131Z,71.93
2019-06-08T10:22:50.517Z,72.22
2019-06-08T10:23:49.254Z,72.99
2019-06-08T10:24:49.707Z,73.37
2019-06-08T10:25:49.381Z,72.99
2019-06-08T10:26:49.444Z,73.14
2019-06-08T10:27:49.508Z,73.27
2019-06-08T10:28:51.265Z,73.08
2019-06-08T10:29:49.635Z,73.46
2019-06-08T10:30:49.705Z,72.85
2019-06-08T10:31:49.762Z,71.98
2019-06-08T10:32:50.827Z,72.95
2019-06-08T10:33:49.888Z,73.43
2019-06-08T10:34:49.963Z,74.10
2019-06-08T10:35:50.018Z,74.96
2019-06-08T10:36:50.081Z,75.21
2019-06-08T10:37:51.231Z,75.35
2019-06-08T10:38:50.204Z,75.25
2019-06-08T10:39:50.271Z,74.93
2019-06-08T10:40:50.329Z,75.35
2019-06-08T10:41:51.605Z,75.70
2019-06-08T10:42:50.460Z,75.31
2019-06-08T10:43:50.519Z,74.96
2019-06-08T10:44:50.581Z,75.12
2019-06-08T10:45:51.158Z,74.64
2019-06-08T10:46:50.708Z,74.44
2019-06-08T10:47:50.775Z,74.16
2019-06-08T10:48:50.832Z,74.64
2019-06-08T10:49:50.896Z,75.73
2019-06-08T10:50:50.964Z,74.96
2019-06-08T10:51:51.029Z,74.35
2019-06-08T10:52:51.085Z,74.73
2019-06-08T10:53:53.342Z,74.68
2019-06-08T10:54:51.208Z,74.19
2019-06-08T10:55:51.301Z,74.29
2019-06-08T10:56:51.340Z,73.77
2019-06-08T10:57:51.397Z,75.21
2019-06-08T10:58:51.458Z,75.60
2019-06-08T10:59:51.531Z,75.21
2019-06-08T11:00:51.583Z,74.73
2019-06-08T11:01:51.653Z,74.83
2019-06-08T11:02:51.710Z,74.83
2019-06-08T11:03:51.773Z,74.64
2019-06-08T11:04:51.834Z,75.12
2019-06-08T11:05:51.896Z,74.83
2019-06-08T11:06:51.960Z,74.64
2019-06-08T11:07:52.032Z,75.21
2019-06-08T11:08:52.084Z,74.64
2019-06-08T11:09:52.145Z,74.19
2019-06-08T11:10:52.208Z,74.26
2019-06-08T11:11:52.271Z,73.91
2019-06-08T11:12:52.332Z,73.24
2019-06-08T11:13:52.394Z,73.72
2019-06-08T11:14:52.458Z,73.68
2019-06-08T11:15:52.520Z,72.91
2019-06-08T11:16:52.593Z,73.00
2019-06-08T11:17:52.650Z,72.81
2019-06-08T11:18:52.705Z,72.75
2019-06-08T11:19:52.778Z,72.75
2019-06-08T11:20:52.829Z,72.95
2019-06-08T11:21:52.892Z,72.12
2019-06-08T11:22:52.954Z,71.04
2019-06-08T11:24:05.666Z,70.52
2019-06-08T11:24:53.082Z,69.75
2019-06-08T11:25:53.141Z,69.98
2019-06-08T11:26:53.236Z,69.31
2019-06-08T11:27:53.267Z,70.17
2019-06-08T11:28:53.351Z,70.07
2019-06-08T11:29:53.395Z,70.07
2019-06-08T11:30:53.478Z,69.60
2019-06-08T11:31:53.520Z,69.79
2019-06-08T11:32:53.584Z,69.69
2019-06-08T11:33:53.647Z,69.92
2019-06-08T11:34:53.715Z,68.96
2019-06-08T11:35:53.775Z,69.63
2019-06-08T11:36:53.852Z,69.34
2019-06-08T11:37:53.915Z,69.40
2019-06-08T11:38:53.975Z,69.21
2019-06-08T11:39:54.045Z,69.60
2019-06-08T11:40:54.103Z,70.37
2019-06-08T11:41:54.160Z,70.23
2019-06-08T11:42:54.225Z,69.85
2019-06-08T11:43:54.295Z,69.75
2019-06-08T11:44:54.352Z,70.33
2019-06-08T11:45:54.416Z,69.75
2019-06-08T11:46:54.527Z,70.23
2019-06-08T11:47:54.542Z,70.49
2019-06-08T11:48:54.614Z,71.35
2019-06-08T11:49:54.669Z,71.35
2019-06-08T11:50:54.738Z,71.14
2019-06-08T11:51:54.802Z,68.96
2019-06-08T11:52:54.861Z,67.26
2019-06-08T11:53:54.924Z,67.93
2019-06-08T11:54:57.356Z,67.83
2019-06-08T11:55:58.375Z,67.26
2019-06-08T11:56:57.421Z,66.62
2019-06-08T11:57:55.182Z,65.66
2019-06-08T11:58:55.249Z,65.94
2019-06-08T11:59:55.311Z,65.88
2019-06-08T12:00:55.376Z,65.05
2019-06-08T12:01:55.444Z,66.78
2019-06-08T12:02:57.970Z,67.19
2019-06-08T12:03:57.827Z,67.86
2019-06-08T12:04:57.245Z,68.54
2019-06-08T12:05:58.160Z,69.12
2019-06-08T12:06:55.770Z,69.50
2019-06-08T12:07:57.840Z,68.03
2019-06-08T12:08:57.365Z,66.91
2019-06-08T12:09:57.900Z,66.14
2019-06-08T12:11:01.230Z,65.59
2019-06-08T12:11:58.069Z,64.34
2019-06-08T12:12:57.415Z,64.43
2019-06-08T12:13:58.335Z,65.56
2019-06-08T12:14:58.217Z,66.71
2019-06-08T12:15:58.724Z,65.72
2019-06-08T12:16:58.129Z,67.07
2019-06-08T12:17:58.714Z,66.71
2019-06-08T12:18:58.656Z,64.66
2019-06-08T12:19:57.713Z,63.15
2019-06-08T12:20:58.392Z,61.80
2019-06-08T12:21:58.003Z,61.32
2019-06-08T12:22:56.824Z,62.06
2019-06-08T12:23:56.892Z,61.77
2019-06-08T12:24:56.957Z,61.96
2019-06-08T12:25:57.024Z,62.80
2019-06-08T12:27:05.245Z,63.54
2019-06-08T12:27:58.513Z,63.85
2019-06-08T12:28:57.999Z,63.21
2019-06-08T12:29:58.759Z,61.10
2019-06-08T12:31:00.266Z,61.74
2019-06-08T12:32:00.117Z,61.77
2019-06-08T12:32:58.177Z,62.15
2019-06-08T12:33:58.748Z,61.25
2019-06-08T12:34:59.826Z,62.00
2019-06-08T12:35:57.944Z,62.83
2019-06-08T12:36:58.315Z,64.08
2019-06-08T12:37:58.202Z,64.47
2019-06-08T12:38:58.580Z,64.12
2019-06-08T12:40:01.371Z,63.09
2019-06-08T12:40:58.616Z,62.93
2019-06-08T12:41:58.372Z,62.03
2019-06-08T12:42:59.697Z,62.70
2019-06-08T12:43:58.238Z,62.93
2019-06-08T12:44:58.791Z,61.19
2019-06-08T12:45:58.365Z,61.51
2019-06-08T12:46:58.763Z,61.13
2019-06-08T12:47:58.499Z,61.68
2019-06-08T12:48:58.564Z,62.25
2019-06-08T12:49:58.690Z,64.47
2019-06-08T12:50:58.700Z,65.46
2019-06-08T12:51:58.766Z,64.73
2019-06-08T12:52:58.832Z,63.85
2019-06-08T12:54:00.271Z,64.50
2019-06-08T12:55:06.121Z,62.96
2019-06-08T12:55:59.032Z,63.18